createdAt,value
2022-08-23T00:00:17.173Z,23.00
2022-08-23T00:02:45.747Z,27.40
2022-08-23T00:05:49.213Z,23.38
2022-08-23T00:08:18.413Z,23.00
2022-08-23T00:10:45.668Z,25.92
2022-08-23T00:13:20.634Z,17.33
2022-08-23T00:15:48.887Z,11.07
2022-08-23T00:18:18.796Z,8.65
2022-08-23T00:20:45.994Z,7.38
2022-08-23T00:23:13.129Z,5.65
2022-08-23T00:25:42.109Z,4.78
2022-08-23T00:28:14.674Z,5.55
2022-08-23T00:30:54.187Z,6.37
2022-08-23T00:33:22.155Z,12.65
2022-08-23T00:35:49.269Z,16.58
2022-08-23T00:38:34.139Z,7.53
2022-08-23T00:41:11.159Z,6.40
2022-08-23T00:44:01.433Z,6.60
2022-08-23T00:47:11.089Z,6.15
2022-08-23T00:49:40.226Z,6.85
2022-08-23T00:52:28.870Z,7.68
2022-08-23T00:54:57.910Z,8.88
2022-08-23T00:57:25.610Z,10.52
2022-08-23T00:59:52.640Z,10.55
2022-08-23T01:02:20.759Z,12.25
2022-08-23T01:04:55.896Z,13.90
2022-08-23T01:07:40.082Z,14.18
2022-08-23T01:10:18.136Z,13.05
2022-08-23T01:12:57.518Z,11.32
2022-08-23T01:16:17.224Z,12.73
2022-08-23T01:18:48.172Z,14.23
2022-08-23T01:21:48.160Z,73.70
2022-08-23T01:24:36.751Z,75.53
2022-08-23T01:27:15.518Z,26.73
2022-08-23T01:29:43.682Z,14.20
2022-08-23T01:32:13.150Z,12.95
2022-08-23T01:34:44.772Z,10.70
2022-08-23T01:37:24.826Z,9.65
2022-08-23T01:39:53.139Z,15.40
2022-08-23T01:42:20.696Z,12.77
2022-08-23T01:44:52.035Z,11.68
2022-08-23T01:47:21.172Z,11.20
2022-08-23T01:49:57.532Z,21.55
2022-08-23T01:52:24.598Z,21.15
2022-08-23T01:54:52.788Z,22.27
2022-08-23T01:57:22.214Z,20.58
2022-08-23T01:59:52.421Z,21.13
2022-08-23T02:02:20.049Z,35.38
2022-08-23T02:04:48.141Z,32.47
2022-08-23T02:07:16.280Z,31.02
2022-08-23T02:09:51.413Z,29.63
2022-08-23T02:12:18.485Z,30.17
2022-08-23T02:14:45.611Z,27.63
2022-08-23T02:17:13.927Z,25.65
2022-08-23T02:19:40.920Z,26.75
2022-08-23T02:22:08.900Z,27.80
2022-08-23T02:24:45.781Z,27.80
2022-08-23T02:27:16.482Z,27.15
2022-08-23T02:29:47.345Z,28.55
2022-08-23T02:32:28.608Z,27.52
2022-08-23T02:35:04.798Z,27.23
2022-08-23T02:37:42.669Z,27.05
2022-08-23T02:40:17.850Z,28.02
2022-08-23T02:42:52.435Z,29.23
2022-08-23T02:45:22.631Z,27.73
2022-08-23T02:47:49.867Z,29.30
2022-08-23T02:50:21.765Z,27.75
2022-08-23T02:52:51.139Z,28.77
2022-08-23T02:55:18.261Z,28.30
2022-08-23T02:57:45.367Z,28.52
2022-08-23T03:00:17.557Z,27.88
2022-08-23T03:02:44.948Z,27.60
2022-08-23T03:05:16.951Z,27.95
2022-08-23T03:08:08.628Z,27.63
2022-08-23T03:10:35.832Z,29.05
2022-08-23T03:13:05.144Z,29.58
2022-08-23T03:15:32.393Z,30.05
2022-08-23T03:17:59.641Z,29.77
2022-08-23T03:20:40.628Z,38.50
2022-08-23T03:23:08.876Z,32.88
2022-08-23T03:25:38.199Z,32.95
2022-08-23T03:28:13.448Z,36.60
2022-08-23T03:30:40.634Z,30.27
2022-08-23T03:33:07.685Z,31.20
2022-08-23T03:35:35.415Z,31.10
2022-08-23T03:38:40.025Z,30.02
2022-08-23T03:43:45.312Z,26.92
2022-08-23T03:46:33.446Z,25.38
2022-08-23T03:49:02.900Z,26.10
2022-08-23T03:51:32.241Z,26.00
2022-08-23T03:54:09.590Z,26.15
2022-08-23T03:56:49.911Z,25.70
2022-08-23T03:59:17.999Z,26.42
2022-08-23T04:01:45.261Z,25.70
2022-08-23T04:04:13.384Z,26.50
2022-08-23T04:06:40.489Z,25.90
2022-08-23T04:09:07.660Z,27.55
2022-08-23T04:11:38.187Z,27.85
2022-08-23T04:14:07.954Z,27.95
2022-08-23T04:16:38.199Z,27.55
2022-08-23T04:19:06.723Z,27.75
2022-08-23T04:21:52.528Z,26.80
2022-08-23T04:24:20.748Z,27.95
2022-08-23T04:26:49.609Z,27.48
2022-08-23T04:29:24.816Z,27.30
2022-08-23T04:32:12.118Z,27.88
2022-08-23T04:34:51.540Z,28.67
2022-08-23T04:37:18.876Z,28.63
2022-08-23T04:40:04.804Z,30.15
2022-08-23T04:42:43.396Z,27.98
2022-08-23T04:45:14.674Z,26.80
2022-08-23T04:47:46.951Z,27.60
2022-08-23T04:50:14.973Z,26.30
2022-08-23T04:52:57.421Z,27.60
2022-08-23T04:55:25.633Z,29.13
2022-08-23T04:57:52.717Z,29.33
2022-08-23T05:00:21.583Z,29.30
2022-08-23T05:02:57.012Z,28.13
2022-08-23T05:05:25.141Z,29.67
2022-08-23T05:07:55.044Z,30.00
2022-08-23T05:10:29.367Z,30.27
2022-08-23T05:12:56.352Z,30.63
2022-08-23T05:15:30.247Z,30.13
2022-08-23T05:18:04.301Z,31.73
2022-08-23T05:20:41.665Z,31.67
2022-08-23T05:23:08.865Z,31.90
2022-08-23T05:25:52.455Z,32.28
2022-08-23T05:28:29.715Z,31.98
2022-08-23T05:31:02.233Z,30.73
2022-08-23T05:33:31.100Z,31.60
2022-08-23T05:36:05.674Z,30.80
2022-08-23T05:38:55.327Z,31.73
2022-08-23T05:41:22.579Z,32.70
2022-08-23T05:44:01.457Z,32.75
2022-08-23T05:46:31.869Z,33.33
2022-08-23T05:49:01.175Z,35.22
2022-08-23T05:51:31.989Z,34.15
2022-08-23T05:54:03.164Z,35.03
2022-08-23T05:56:39.261Z,34.80
2022-08-23T05:59:16.147Z,36.53
2022-08-23T06:01:50.311Z,36.00
2022-08-23T06:04:24.341Z,35.28
2022-08-23T06:06:51.452Z,34.70
2022-08-23T06:09:32.076Z,35.15
2022-08-23T06:11:59.806Z,34.17
2022-08-23T06:14:29.077Z,33.63
2022-08-23T06:16:57.358Z,33.90
2022-08-23T06:19:48.660Z,33.22
2022-08-23T06:22:19.015Z,31.83
2022-08-23T06:24:47.383Z,32.40
2022-08-23T06:27:14.761Z,32.67
2022-08-23T06:29:42.442Z,32.40
2022-08-23T06:32:09.514Z,32.88
2022-08-23T06:34:39.069Z,31.75
2022-08-23T06:37:15.268Z,31.35
2022-08-23T06:39:43.346Z,31.83
2022-08-23T06:42:38.270Z,32.08
2022-08-23T06:45:06.733Z,31.30
2022-08-23T06:47:35.038Z,31.55
2022-08-23T06:50:04.316Z,33.08
2022-08-23T06:52:31.686Z,32.97
2022-08-23T06:54:59.208Z,31.63
2022-08-23T06:57:32.974Z,33.63
2022-08-23T07:02:29.948Z,33.20
2022-08-23T07:04:59.336Z,33.03
2022-08-23T07:07:41.316Z,32.60
2022-08-23T07:10:15.734Z,32.60
2022-08-23T07:12:44.553Z,31.80
2022-08-23T07:15:17.523Z,30.08
2022-08-23T07:17:56.992Z,28.77
2022-08-23T07:20:32.193Z,28.92
2022-08-23T07:23:01.800Z,28.70
2022-08-23T07:25:30.330Z,28.48
2022-08-23T07:27:59.119Z,28.50
2022-08-23T07:30:26.300Z,28.10
2022-08-23T07:32:53.435Z,27.05
2022-08-23T07:35:24.705Z,25.90
2022-08-23T07:37:51.934Z,27.60
2022-08-23T07:40:27.655Z,27.85
2022-08-23T07:42:58.153Z,28.65
2022-08-23T07:45:25.242Z,27.17
2022-08-23T07:47:52.450Z,27.55
2022-08-23T07:50:20.795Z,26.83
2022-08-23T07:52:47.937Z,27.40
2022-08-23T07:55:15.686Z,29.88
2022-08-23T07:57:43.903Z,28.08
2022-08-23T08:00:11.581Z,28.40
2022-08-23T08:02:38.629Z,27.33
2022-08-23T08:05:08.415Z,26.77
2022-08-23T08:07:37.723Z,26.50
2022-08-23T08:10:06.269Z,27.85
2022-08-23T08:12:36.917Z,26.73
2022-08-23T08:15:05.201Z,26.60
2022-08-23T08:17:32.340Z,27.05
2022-08-23T08:20:11.677Z,26.15
2022-08-23T08:22:38.859Z,27.15
2022-08-23T08:25:09.557Z,25.63
2022-08-23T08:27:36.814Z,24.20
2022-08-23T08:30:09.497Z,25.20
2022-08-23T08:32:37.959Z,24.67
2022-08-23T08:35:10.847Z,24.25
2022-08-23T08:37:41.014Z,23.58
2022-08-23T08:40:09.719Z,24.30
2022-08-23T08:42:59.765Z,26.80
2022-08-23T08:45:38.703Z,38.28
2022-08-23T08:48:15.682Z,60.30
2022-08-23T08:50:52.700Z,29.67
2022-08-23T08:53:29.543Z,37.17
2022-08-23T08:56:03.174Z,55.17
2022-08-23T08:58:52.900Z,34.97
2022-08-23T09:01:44.293Z,24.90
2022-08-23T09:04:11.830Z,45.97
2022-08-23T09:07:20.985Z,45.58
2022-08-23T09:09:51.146Z,27.10
2022-08-23T09:12:59.576Z,23.15
2022-08-23T09:15:43.661Z,27.63
2022-08-23T09:20:52.371Z,20.17
2022-08-23T09:23:27.776Z,20.30
2022-08-23T09:26:03.975Z,19.95
2022-08-23T09:28:36.680Z,26.48
2022-08-23T09:31:08.176Z,20.42
2022-08-23T09:33:49.548Z,20.13
2022-08-23T09:36:29.261Z,30.15
2022-08-23T09:39:06.555Z,32.28
2022-08-23T09:41:42.536Z,19.88
2022-08-23T09:44:29.990Z,19.10
2022-08-23T09:47:16.092Z,19.55
2022-08-23T09:49:48.904Z,18.50
2022-08-23T09:52:40.681Z,18.80
2022-08-23T09:55:28.303Z,17.45
2022-08-23T09:58:17.761Z,33.67
2022-08-23T10:01:07.661Z,20.25
2022-08-23T10:03:36.873Z,17.63
2022-08-23T10:06:06.269Z,15.95
2022-08-23T10:08:43.005Z,14.90
2022-08-23T10:11:26.098Z,15.40
2022-08-23T10:13:56.866Z,17.17
2022-08-23T10:16:47.333Z,16.48
2022-08-23T10:19:47.737Z,16.88
2022-08-23T10:22:22.949Z,16.50
2022-08-23T10:24:53.939Z,13.23
2022-08-23T10:27:52.676Z,13.38
2022-08-23T10:30:28.099Z,12.73
2022-08-23T10:32:57.898Z,12.57
2022-08-23T10:35:50.207Z,12.55
2022-08-23T10:38:19.927Z,11.23
2022-08-23T10:41:26.781Z,11.07
2022-08-23T10:44:21.056Z,10.85
2022-08-23T10:47:27.925Z,12.43
2022-08-23T10:50:07.616Z,10.73
2022-08-23T10:52:45.479Z,10.88
2022-08-23T10:55:36.863Z,10.70
2022-08-23T10:58:08.929Z,10.32
2022-08-23T11:00:42.717Z,9.80
2022-08-23T11:06:21.605Z,9.52
2022-08-23T11:09:04.081Z,7.75
2022-08-23T11:11:55.517Z,7.57
2022-08-23T11:14:41.072Z,8.30
2022-08-23T11:17:49.934Z,9.93
2022-08-23T11:20:51.158Z,11.30
2022-08-23T11:23:41.120Z,11.43
2022-08-23T11:26:36.394Z,11.15
2022-08-23T11:29:07.254Z,13.00
2022-08-23T11:31:45.225Z,13.38
2022-08-23T11:34:29.866Z,12.82
2022-08-23T11:37:18.859Z,12.23
2022-08-23T11:39:58.313Z,11.93
2022-08-23T11:42:52.875Z,13.68
2022-08-23T11:45:42.162Z,13.43
2022-08-23T11:48:43.411Z,12.38
2022-08-23T11:51:37.724Z,11.80
2022-08-23T11:54:39.734Z,11.18
2022-08-23T11:57:39.137Z,10.55
2022-08-23T12:00:29.485Z,10.82
2022-08-23T12:03:20.416Z,11.27
2022-08-23T12:05:55.456Z,12.05
2022-08-23T12:08:43.667Z,11.25
2022-08-23T12:11:19.817Z,12.13
2022-08-23T12:13:51.823Z,12.65
2022-08-23T12:16:23.015Z,12.82
2022-08-23T12:18:54.632Z,12.70
2022-08-23T12:22:00.387Z,13.00
2022-08-23T12:24:47.123Z,12.23
2022-08-23T12:27:28.216Z,13.65
2022-08-23T12:30:11.172Z,12.35
2022-08-23T12:33:09.164Z,11.35
2022-08-23T12:35:46.211Z,11.88
2022-08-23T12:38:47.796Z,14.80
2022-08-23T12:41:29.650Z,10.27
2022-08-23T12:44:09.822Z,17.65
2022-08-23T12:46:44.988Z,12.73
2022-08-23T12:49:46.691Z,12.90
2022-08-23T12:52:15.824Z,14.02
2022-08-23T12:54:46.643Z,14.88
2022-08-23T12:57:19.744Z,11.23
2022-08-23T13:00:17.142Z,11.32
2022-08-23T13:03:04.215Z,11.43
2022-08-23T13:05:46.502Z,12.25
2022-08-23T13:08:34.812Z,11.50
2022-08-23T13:11:08.037Z,10.93
2022-08-23T13:13:39.152Z,10.15
2022-08-23T13:16:41.215Z,11.13
2022-08-23T13:19:23.658Z,11.85
2022-08-23T13:22:29.643Z,11.23
2022-08-23T13:28:01.010Z,10.98
2022-08-23T13:30:39.275Z,10.10
2022-08-23T13:33:25.959Z,10.50
2022-08-23T13:36:13.800Z,10.70
2022-08-23T13:38:43.512Z,10.38
2022-08-23T13:41:31.692Z,12.27
2022-08-23T13:43:59.270Z,12.82
2022-08-23T13:46:34.409Z,12.68
2022-08-23T13:49:15.726Z,12.57
2022-08-23T13:52:33.430Z,13.20
2022-08-23T13:54:52.975Z,13.90
2022-08-23T13:57:30.358Z,13.27
2022-08-23T14:00:08.047Z,12.45
2022-08-23T14:02:37.750Z,12.10
2022-08-23T14:05:09.537Z,12.43
2022-08-23T14:07:46.421Z,12.40
2022-08-23T14:10:18.430Z,12.25
2022-08-23T14:12:56.141Z,13.25
2022-08-23T14:18:22.369Z,12.10
2022-08-23T14:20:51.208Z,13.43
2022-08-23T14:23:19.339Z,12.27
2022-08-23T14:25:47.596Z,12.18
2022-08-23T14:28:30.469Z,12.38
2022-08-23T14:31:00.740Z,12.57
2022-08-23T14:33:29.056Z,14.73
2022-08-23T14:35:57.628Z,14.80
2022-08-23T14:38:31.062Z,14.98
2022-08-23T14:41:03.739Z,15.68
2022-08-23T14:43:41.138Z,17.00
2022-08-23T14:46:09.239Z,17.45
2022-08-23T14:48:43.570Z,18.60
2022-08-23T14:51:30.522Z,18.90
2022-08-23T14:53:59.907Z,18.52
2022-08-23T14:56:28.684Z,17.63
2022-08-23T14:58:59.051Z,16.25
2022-08-23T15:01:27.564Z,21.85
2022-08-23T15:04:05.834Z,27.92
2022-08-23T15:06:34.096Z,27.92
2022-08-23T15:09:15.915Z,29.77
2022-08-23T15:14:44.705Z,28.80
2022-08-23T15:17:11.683Z,28.60
2022-08-23T15:19:39.984Z,28.40
2022-08-23T15:22:15.816Z,29.63
2022-08-23T15:24:48.795Z,29.15
2022-08-23T15:27:19.474Z,27.20
2022-08-23T15:29:46.743Z,27.80
2022-08-23T15:32:13.961Z,27.73
2022-08-23T15:34:48.140Z,25.65
2022-08-23T15:37:20.632Z,25.77
2022-08-23T15:39:53.909Z,24.42
2022-08-23T15:42:24.182Z,24.13
2022-08-23T15:44:52.337Z,24.30
2022-08-23T15:47:29.928Z,24.25
2022-08-23T15:49:59.500Z,23.02
2022-08-23T15:52:29.692Z,24.00
2022-08-23T15:54:59.877Z,21.58
2022-08-23T15:57:43.157Z,20.45
2022-08-23T16:00:13.040Z,19.58
2022-08-23T16:03:04.239Z,18.20
2022-08-23T16:05:29.108Z,19.83
2022-08-23T16:08:07.372Z,18.35
2022-08-23T16:10:39.275Z,18.95
2022-08-23T16:13:08.329Z,18.77
2022-08-23T16:15:38.941Z,18.27
2022-08-23T16:18:08.352Z,19.20
2022-08-23T16:20:35.554Z,19.60
2022-08-23T16:23:19.841Z,20.45
2022-08-23T16:25:47.127Z,20.35
2022-08-23T16:28:15.422Z,21.38
2022-08-23T16:30:43.854Z,21.13
2022-08-23T16:33:11.190Z,22.88
2022-08-23T16:35:48.418Z,23.98
2022-08-23T16:38:23.362Z,23.80
2022-08-23T16:40:50.399Z,25.35
2022-08-23T16:43:18.553Z,24.10
2022-08-23T16:45:45.696Z,24.40
2022-08-23T16:48:15.061Z,24.15
2022-08-23T16:50:50.169Z,23.27
2022-08-23T16:53:18.875Z,24.42
2022-08-23T16:55:52.836Z,24.80
2022-08-23T16:58:21.856Z,25.83
2022-08-23T17:00:50.757Z,26.10
2022-08-23T17:03:24.149Z,25.17
2022-08-23T17:05:51.314Z,25.92
2022-08-23T17:08:20.634Z,23.95
2022-08-23T17:10:49.290Z,24.40
2022-08-23T17:13:19.053Z,24.08
2022-08-23T17:15:48.096Z,22.60
2022-08-23T17:18:23.303Z,21.70
2022-08-23T17:20:50.836Z,20.63
2022-08-23T17:23:52.255Z,19.55
2022-08-23T17:26:20.760Z,20.10
2022-08-23T17:28:56.891Z,18.65
2022-08-23T17:31:27.267Z,21.02
2022-08-23T17:34:04.221Z,19.83
2022-08-23T17:36:38.734Z,20.27
2022-08-23T17:39:13.448Z,20.15
2022-08-23T17:41:45.199Z,19.65
2022-08-23T17:44:13.311Z,20.35
2022-08-23T17:46:43.991Z,20.95
2022-08-23T17:49:12.176Z,21.17
2022-08-23T17:51:41.471Z,20.42
2022-08-23T17:54:16.440Z,20.95
2022-08-23T17:56:50.417Z,21.77
2022-08-23T17:59:23.678Z,21.50
2022-08-23T18:01:52.371Z,21.58
2022-08-23T18:04:20.504Z,23.10
2022-08-23T18:06:53.687Z,22.67
2022-08-23T18:09:20.784Z,22.45
2022-08-23T18:11:56.048Z,23.40
2022-08-23T18:14:25.355Z,23.67
2022-08-23T18:17:00.437Z,24.75
2022-08-23T18:19:30.975Z,24.63
2022-08-23T18:22:21.908Z,25.38
2022-08-23T18:24:49.522Z,25.70
2022-08-23T18:28:06.989Z,27.10
2022-08-23T18:30:49.870Z,26.63
2022-08-23T18:33:20.550Z,26.20
2022-08-23T18:35:53.923Z,25.63
2022-08-23T18:38:22.233Z,26.15
2022-08-23T18:40:56.421Z,27.75
2022-08-23T18:43:34.813Z,27.45
2022-08-23T18:46:20.195Z,28.40
2022-08-23T18:48:53.433Z,29.30
2022-08-23T18:51:27.983Z,29.60
2022-08-23T18:53:56.577Z,28.52
2022-08-23T18:56:24.715Z,29.30
2022-08-23T18:59:01.172Z,29.20
2022-08-23T19:01:37.140Z,29.58
2022-08-23T19:04:06.783Z,29.35
2022-08-23T19:06:34.937Z,28.52
2022-08-23T19:09:02.379Z,29.17
2022-08-23T19:11:30.202Z,29.73
2022-08-23T19:14:01.605Z,30.40
2022-08-23T19:16:45.659Z,31.42
2022-08-23T19:19:28.822Z,29.90
2022-08-23T19:21:59.133Z,29.17
2022-08-23T19:24:28.134Z,31.45
2022-08-23T19:26:55.668Z,29.77
2022-08-23T19:29:25.313Z,30.17
2022-08-23T19:31:54.932Z,32.00
2022-08-23T19:34:29.004Z,33.70
2022-08-23T19:37:03.998Z,33.10
2022-08-23T19:39:37.307Z,33.53
2022-08-23T19:42:11.051Z,35.38
2022-08-23T19:44:39.967Z,34.40
2022-08-23T19:47:08.015Z,34.50
2022-08-23T19:49:55.988Z,35.35
2022-08-23T19:52:31.809Z,37.10
2022-08-23T19:55:03.002Z,37.55
2022-08-23T19:57:58.904Z,35.90
2022-08-23T20:00:35.324Z,36.20
2022-08-23T20:03:04.811Z,36.95
2022-08-23T20:05:33.907Z,37.55
2022-08-23T20:08:08.197Z,38.58
2022-08-23T20:10:45.076Z,38.33
2022-08-23T20:13:42.320Z,37.92
2022-08-23T20:16:12.183Z,39.47
2022-08-23T20:18:53.152Z,39.63
2022-08-23T20:21:27.338Z,40.42
2022-08-23T20:24:01.690Z,38.75
2022-08-23T20:26:31.839Z,40.47
2022-08-23T20:29:22.054Z,37.22
2022-08-23T20:32:09.220Z,37.53
2022-08-23T20:34:38.291Z,39.25
2022-08-23T20:37:06.625Z,42.42
2022-08-23T20:39:56.710Z,46.80
2022-08-23T20:42:34.148Z,43.08
2022-08-23T20:45:05.946Z,39.03
2022-08-23T20:47:41.467Z,39.25
2022-08-23T20:50:15.978Z,36.45
2022-08-23T20:52:45.114Z,37.72
2022-08-23T20:55:17.977Z,38.63
2022-08-23T20:57:51.095Z,38.83
2022-08-23T21:00:23.272Z,37.85
2022-08-23T21:02:56.620Z,36.33
2022-08-23T21:05:33.671Z,38.47
2022-08-23T21:08:30.902Z,38.70
2022-08-23T21:11:28.699Z,38.15
2022-08-23T21:14:05.116Z,38.75
2022-08-23T21:16:33.514Z,38.88
2022-08-23T21:19:09.803Z,37.85
2022-08-23T21:21:42.928Z,39.05
2022-08-23T21:24:12.023Z,38.42
2022-08-23T21:26:42.120Z,38.65
2022-08-23T21:29:10.901Z,39.05
2022-08-23T21:31:39.966Z,38.80
2022-08-23T21:34:14.660Z,39.17
2022-08-23T21:36:47.833Z,43.92
2022-08-23T21:39:30.762Z,39.80
2022-08-23T21:42:27.065Z,38.97
2022-08-23T21:45:07.341Z,38.97
2022-08-23T21:47:39.973Z,39.22
2022-08-23T21:50:08.546Z,39.80
2022-08-23T21:53:03.887Z,39.63
2022-08-23T21:55:40.366Z,40.10
2022-08-23T21:58:15.496Z,40.83
2022-08-23T22:00:49.415Z,39.90
2022-08-23T22:03:22.513Z,43.15
2022-08-23T22:05:50.382Z,41.53
2022-08-23T22:08:18.718Z,43.92
2022-08-23T22:10:57.363Z,42.78
2022-08-23T22:13:26.535Z,41.90
2022-08-23T22:15:55.036Z,46.65
2022-08-23T22:18:22.184Z,56.35
2022-08-23T22:20:49.216Z,53.30
2022-08-23T22:23:17.604Z,45.30
2022-08-23T22:25:44.837Z,45.72
2022-08-23T22:28:13.102Z,43.95
2022-08-23T22:30:42.993Z,46.15
2022-08-23T22:33:14.297Z,45.83
2022-08-23T22:35:49.063Z,46.10
2022-08-23T22:38:23.281Z,45.97
2022-08-23T22:41:03.452Z,45.30
2022-08-23T22:43:36.990Z,44.53
2022-08-23T22:46:06.385Z,47.05
2022-08-23T22:48:37.410Z,44.00
2022-08-23T22:51:09.531Z,47.78
2022-08-23T22:53:38.957Z,47.13
2022-08-23T22:56:07.166Z,47.90
2022-08-23T22:58:35.306Z,45.65
2022-08-23T23:01:05.716Z,48.55
2022-08-23T23:03:42.137Z,46.45
2022-08-23T23:06:09.840Z,44.33
2022-08-23T23:08:37.438Z,49.10
2022-08-23T23:11:11.260Z,47.33
2022-08-23T23:16:17.316Z,46.72
2022-08-23T23:19:04.646Z,48.95
2022-08-23T23:21:36.928Z,48.22
2022-08-23T23:24:05.620Z,46.97
2022-08-23T23:26:32.702Z,51.10
2022-08-23T23:29:01.221Z,47.28
2022-08-23T23:31:30.400Z,46.40
2022-08-23T23:33:57.662Z,47.90
2022-08-23T23:36:41.589Z,47.63
2022-08-23T23:39:11.227Z,47.85
2022-08-23T23:41:44.546Z,44.28
2022-08-23T23:44:29.188Z,46.63
2022-08-23T23:47:04.167Z,45.40
2022-08-23T23:49:33.949Z,47.47
2022-08-23T23:52:07.636Z,45.85
2022-08-23T23:54:41.731Z,46.42
2022-08-23T23:57:09.759Z,47.65
2022-08-23T23:59:51.047Z,47.35
